sensor_id;sensor_type;location;lat;lon;timestamp;pressure;altitude;pressure_sealevel;temperature;humidity
24013;BME280;12220;50.194;18.948;2023-03-20T00:00:05;101845.41;;;10.46;48.14
24013;BME280;12220;50.194;18.948;2023-03-20T00:02:24;101844.49;;;10.45;48.13
24013;BME280;12220;50.194;18.948;2023-03-20T00:04:26;101850.88;;;10.46;48.12
24013;BME280;12220;50.194;18.948;2023-03-20T00:06:30;101853.53;;;10.48;48.13
24013;BME280;12220;50.194;18.948;2023-03-20T00:08:32;101846.36;;;10.45;48.11
24013;BME280;12220;50.194;18.948;2023-03-20T00:10:41;101852.71;;;10.45;48.12
24013;BME280;12220;50.194;18.948;2023-03-20T00:12:46;101858.19;;;10.45;48.11
24013;BME280;12220;50.194;18.948;2023-03-20T00:14:48;101855.44;;;10.45;48.12
24013;BME280;12220;50.194;18.948;2023-03-20T00:16:50;101860.13;;;10.43;48.11
24013;BME280;12220;50.194;18.948;2023-03-20T00:18:56;101851.05;;;10.43;48.10
24013;BME280;12220;50.194;18.948;2023-03-20T00:20:59;101858.35;;;10.42;48.12
24013;BME280;12220;50.194;18.948;2023-03-20T00:23:01;101852.95;;;10.41;48.14
24013;BME280;12220;50.194;18.948;2023-03-20T00:25:05;101856.60;;;10.41;48.14
24013;BME280;12220;50.194;18.948;2023-03-20T00:27:13;101859.41;;;10.40;48.12
24013;BME280;12220;50.194;18.948;2023-03-20T00:29:24;101860.38;;;10.39;48.13
24013;BME280;12220;50.194;18.948;2023-03-20T00:31:29;101855.86;;;10.38;48.12
24013;BME280;12220;50.194;18.948;2023-03-20T00:33:31;101853.20;;;10.36;48.15
24013;BME280;12220;50.194;18.948;2023-03-20T00:35:33;101847.72;;;10.36;48.12
24013;BME280;12220;50.194;18.948;2023-03-20T00:37:34;101852.33;;;10.36;48.13
24013;BME280;12220;50.194;18.948;2023-03-20T00:39:36;101856.02;;;10.35;48.15
24013;BME280;12220;50.194;18.948;2023-03-20T00:43:52;101850.55;;;10.35;48.18
24013;BME280;12220;50.194;18.948;2023-03-20T00:45:54;101845.07;;;10.35;48.17
24013;BME280;12220;50.194;18.948;2023-03-20T00:47:56;101845.94;;;10.35;48.18
24013;BME280;12220;50.194;18.948;2023-03-20T00:49:58;101839.59;;;10.35;48.18
24013;BME280;12220;50.194;18.948;2023-03-20T00:52:03;101842.24;;;10.36;48.18
24013;BME280;12220;50.194;18.948;2023-03-20T00:54:14;101841.37;;;10.36;48.19
24013;BME280;12220;50.194;18.948;2023-03-20T00:58:30;101834.11;;;10.35;48.21
24013;BME280;12220;50.194;18.948;2023-03-20T01:02:45;101841.29;;;10.37;48.21
24013;BME280;12220;50.194;18.948;2023-03-20T01:04:47;101828.48;;;10.38;48.23
24013;BME280;12220;50.194;18.948;2023-03-20T01:06:49;101830.26;;;10.39;48.23
24013;BME280;12220;50.194;18.948;2023-03-20T01:08:52;101825.66;;;10.39;48.23
24013;BME280;12220;50.194;18.948;2023-03-20T01:10:58;101825.66;;;10.39;48.21
24013;BME280;12220;50.194;18.948;2023-03-20T01:13:00;101821.08;;;10.40;48.24
24013;BME280;12220;50.194;18.948;2023-03-20T01:15:03;101822.91;;;10.39;48.22
24013;BME280;12220;50.194;18.948;2023-03-20T01:17:10;101821.08;;;10.40;48.22
24013;BME280;12220;50.194;18.948;2023-03-20T01:19:15;101821.95;;;10.40;48.20
24013;BME280;12220;50.194;18.948;2023-03-20T01:21:18;101820.18;;;10.39;48.22
24013;BME280;12220;50.194;18.948;2023-03-20T01:23:21;101821.08;;;10.40;48.24
24013;BME280;12220;50.194;18.948;2023-03-20T01:25:27;101822.04;;;10.39;48.25
24013;BME280;12220;50.194;18.948;2023-03-20T01:27:29;101819.30;;;10.39;48.25
24013;BME280;12220;50.194;18.948;2023-03-20T01:29:32;101820.18;;;10.39;48.27
24013;BME280;12220;50.194;18.948;2023-03-20T01:31:33;101827.43;;;10.40;48.25
24013;BME280;12220;50.194;18.948;2023-03-20T01:33:35;101830.97;;;10.42;48.23
24013;BME280;12220;50.194;18.948;2023-03-20T01:35:43;101828.14;;;10.44;48.21
24013;BME280;12220;50.194;18.948;2023-03-20T01:37:47;101828.14;;;10.44;48.23
24013;BME280;12220;50.194;18.948;2023-03-20T01:39:49;101825.32;;;10.45;48.26
24013;BME280;12220;50.194;18.948;2023-03-20T01:41:52;101824.45;;;10.45;48.33
24013;BME280;12220;50.194;18.948;2023-03-20T01:44:00;101832.74;;;10.43;48.40
24013;BME280;12220;50.194;18.948;2023-03-20T01:48:22;101831.13;;;10.39;48.60
24013;BME280;12220;50.194;18.948;2023-03-20T01:50:35;101829.42;;;10.37;48.69
24013;BME280;12220;50.194;18.948;2023-03-20T01:52:37;101842.37;;;10.33;48.78
24013;BME280;12220;50.194;18.948;2023-03-20T01:54:46;101843.33;;;10.32;48.83
24013;BME280;12220;50.194;18.948;2023-03-20T01:57:06;101841.59;;;10.31;48.89
24013;BME280;12220;50.194;18.948;2023-03-20T01:59:07;101835.28;;;10.29;48.93
24013;BME280;12220;50.194;18.948;2023-03-20T02:01:12;101846.39;;;10.26;48.98
24013;BME280;12220;50.194;18.948;2023-03-20T02:03:14;101832.86;;;10.23;48.98
24013;BME280;12220;50.194;18.948;2023-03-20T02:05:19;101838.58;;;10.18;49.00
24013;BME280;12220;50.194;18.948;2023-03-20T02:07:23;101846.04;;;10.15;49.06
24013;BME280;12220;50.194;18.948;2023-03-20T02:09:25;101839.77;;;10.12;49.08
24013;BME280;12220;50.194;18.948;2023-03-20T02:11:28;101847.16;;;10.10;49.14
24013;BME280;12220;50.194;18.948;2023-03-20T02:13:32;101845.41;;;10.09;49.15
24013;BME280;12220;50.194;18.948;2023-03-20T02:15:34;101843.63;;;10.08;49.19
24013;BME280;12220;50.194;18.948;2023-03-20T02:17:36;101847.31;;;10.07;49.22
24013;BME280;12220;50.194;18.948;2023-03-20T02:24:39;101845.73;;;10.03;49.34
24013;BME280;12220;50.194;18.948;2023-03-20T02:43:26;101842.79;;;9.89;49.70
24013;BME280;12220;50.194;18.948;2023-03-20T02:48:12;101838.51;;;9.83;49.80
24013;BME280;12220;50.194;18.948;2023-03-20T02:50:32;101841.39;;;9.80;49.84
24013;BME280;12220;50.194;18.948;2023-03-20T02:59:56;101834.80;;;9.65;50.17
24013;BME280;12220;50.194;18.948;2023-03-20T03:02:11;101829.41;;;9.64;50.26
24013;BME280;12220;50.194;18.948;2023-03-20T03:04:17;101825.80;;;9.63;50.31
24013;BME280;12220;50.194;18.948;2023-03-20T03:08:37;101826.75;;;9.62;50.37
24013;BME280;12220;50.194;18.948;2023-03-20T03:10:57;101825.88;;;9.62;50.39
24013;BME280;12220;50.194;18.948;2023-03-20T03:12:56;101823.30;;;9.58;50.38
24013;BME280;12220;50.194;18.948;2023-03-20T03:17:33;101835.27;;;9.56;50.48
24013;BME280;12220;50.194;18.948;2023-03-20T03:19:39;101837.27;;;9.52;50.51
24013;BME280;12220;50.194;18.948;2023-03-20T03:21:45;101830.97;;;9.50;50.56
24013;BME280;12220;50.194;18.948;2023-03-20T03:23:48;101844.80;;;9.47;50.64
24013;BME280;12220;50.194;18.948;2023-03-20T03:25:50;101841.20;;;9.47;50.67
24013;BME280;12220;50.194;18.948;2023-03-20T03:28:00;101840.36;;;9.45;50.69
24013;BME280;12220;50.194;18.948;2023-03-20T03:30:13;101835.91;;;9.42;50.70
24013;BME280;12220;50.194;18.948;2023-03-20T03:32:24;101840.59;;;9.40;50.78
24013;BME280;12220;50.194;18.948;2023-03-20T03:34:26;101837.04;;;9.38;50.91
24013;BME280;12220;50.194;18.948;2023-03-20T03:38:57;101838.07;;;9.35;50.96
24013;BME280;12220;50.194;18.948;2023-03-20T03:41:12;101831.65;;;9.36;51.00
24013;BME280;12220;50.194;18.948;2023-03-20T03:43:17;101835.34;;;9.35;51.00
24013;BME280;12220;50.194;18.948;2023-03-20T03:49:57;101679.49;;;8.19;50.98
24013;BME280;12220;50.194;18.948;2023-03-20T03:52:07;101833.47;;;9.36;51.05
24013;BME280;12220;50.194;18.948;2023-03-20T03:54:18;101828.16;;;9.33;51.07
24013;BME280;12220;50.194;18.948;2023-03-20T03:56:25;101832.91;;;9.29;51.12
24013;BME280;12220;50.194;18.948;2023-03-20T03:58:37;101608.73;;;7.96;51.14
24013;BME280;12220;50.194;18.948;2023-03-20T04:00:42;101836.73;;;9.25;51.22
24013;BME280;12220;50.194;18.948;2023-03-20T04:02:51;101835.98;;;9.21;51.25
24013;BME280;12220;50.194;18.948;2023-03-20T04:04:54;101857.11;;;9.18;51.35
24013;BME280;12220;50.194;18.948;2023-03-20T04:06:56;101836.34;;;9.14;51.42
24013;BME280;12220;50.194;18.948;2023-03-20T04:08:58;101839.22;;;9.11;51.51
24013;BME280;12220;50.194;18.948;2023-03-20T04:11:04;101835.73;;;9.07;51.56
24013;BME280;12220;50.194;18.948;2023-03-20T04:13:05;101841.34;;;9.04;51.67
24013;BME280;12220;50.194;18.948;2023-03-20T04:15:08;101837.73;;;9.03;51.77
24013;BME280;12220;50.194;18.948;2023-03-20T04:17:10;101835.95;;;9.02;51.84
24013;BME280;12220;50.194;18.948;2023-03-20T04:19:18;101834.12;;;9.03;51.91
24013;BME280;12220;50.194;18.948;2023-03-20T04:21:20;101840.61;;;9.00;52.00
24013;BME280;12220;50.194;18.948;2023-03-20T04:23:22;101836.02;;;9.01;52.10
24013;BME280;12220;50.194;18.948;2023-03-20T04:25:25;101845.13;;;9.01;52.18
24013;BME280;12220;50.194;18.948;2023-03-20T04:27:34;101846.01;;;9.02;52.24
24013;BME280;12220;50.194;18.948;2023-03-20T04:29:36;101843.27;;;9.02;52.32
24013;BME280;12220;50.194;18.948;2023-03-20T04:31:37;101846.01;;;9.02;52.45
24013;BME280;12220;50.194;18.948;2023-03-20T04:33:39;101848.80;;;9.00;52.53
24013;BME280;12220;50.194;18.948;2023-03-20T04:35:48;101560.54;;;7.35;52.50
24013;BME280;12220;50.194;18.948;2023-03-20T04:37:50;101839.05;;;8.95;52.63
24013;BME280;12220;50.194;18.948;2023-03-20T04:39:52;101845.52;;;8.92;52.68
24013;BME280;12220;50.194;18.948;2023-03-20T04:41:53;101849.20;;;8.91;52.72
24013;BME280;12220;50.194;18.948;2023-03-20T04:44:04;101848.34;;;8.90;52.73
24013;BME280;12220;50.194;18.948;2023-03-20T04:46:05;101852.08;;;8.88;52.75
24013;BME280;12220;50.194;18.948;2023-03-20T04:48:07;101844.03;;;8.85;52.81
24013;BME280;12220;50.194;18.948;2023-03-20T04:50:11;101844.10;;;8.83;52.86
24013;BME280;12220;50.194;18.948;2023-03-20T04:52:18;101847.78;;;8.82;52.84
24013;BME280;12220;50.194;18.948;2023-03-20T04:54:20;101842.54;;;8.78;52.88
24013;BME280;12220;50.194;18.948;2023-03-20T04:56:22;101846.34;;;8.73;52.91
24013;BME280;12220;50.194;18.948;2023-03-20T04:58:24;101851.08;;;8.70;52.98
24013;BME280;12220;50.194;18.948;2023-03-20T05:00:34;101858.56;;;8.65;53.08
24013;BME280;12220;50.194;18.948;2023-03-20T05:02:36;101860.63;;;8.60;53.20
24013;BME280;12220;50.194;18.948;2023-03-20T05:04:37;101862.59;;;8.56;53.29
24013;BME280;12220;50.194;18.948;2023-03-20T05:06:39;101864.52;;;8.54;53.37
24013;BME280;12220;50.194;18.948;2023-03-20T05:08:49;101863.77;;;8.50;53.42
24013;BME280;12220;50.194;18.948;2023-03-20T05:10:51;101866.61;;;8.47;53.54
24013;BME280;12220;50.194;18.948;2023-03-20T05:12:52;101867.65;;;8.45;53.72
24013;BME280;12220;50.194;18.948;2023-03-20T05:14:54;101864.05;;;8.43;53.85
24013;BME280;12220;50.194;18.948;2023-03-20T05:17:04;101864.05;;;8.43;53.93
24013;BME280;12220;50.194;18.948;2023-03-20T05:19:06;101856.81;;;8.42;54.04
24013;BME280;12220;50.194;18.948;2023-03-20T05:21:07;101856.01;;;8.40;54.14
24013;BME280;12220;50.194;18.948;2023-03-20T05:23:09;101858.73;;;8.40;54.24
24013;BME280;12220;50.194;18.948;2023-03-20T05:25:19;101864.20;;;8.40;54.26
24013;BME280;12220;50.194;18.948;2023-03-20T05:27:20;101872.38;;;8.40;54.29
24013;BME280;12220;50.194;18.948;2023-03-20T05:29:22;101862.41;;;8.38;54.33
24013;BME280;12220;50.194;18.948;2023-03-20T05:31:23;101860.66;;;8.37;54.38
24013;BME280;12220;50.194;18.948;2023-03-20T05:33:34;101870.66;;;8.37;54.41
24013;BME280;12220;50.194;18.948;2023-03-20T05:35:36;101872.52;;;8.36;54.52
24013;BME280;12220;50.194;18.948;2023-03-20T05:37:38;101866.18;;;8.36;54.66
24013;BME280;12220;50.194;18.948;2023-03-20T05:39:39;101883.37;;;8.38;54.79
24013;BME280;12220;50.194;18.948;2023-03-20T05:41:49;101863.32;;;8.39;54.85
24013;BME280;12220;50.194;18.948;2023-03-20T05:43:50;101873.18;;;8.42;54.91
24013;BME280;12220;50.194;18.948;2023-03-20T05:45:52;101873.12;;;8.45;55.04
24013;BME280;12220;50.194;18.948;2023-03-20T05:47:54;101869.34;;;8.47;55.12
24013;BME280;12220;50.194;18.948;2023-03-20T05:50:04;101869.23;;;8.50;55.21
24013;BME280;12220;50.194;18.948;2023-03-20T05:52:06;101873.58;;;8.54;55.28
24013;BME280;12220;50.194;18.948;2023-03-20T05:54:08;101877.09;;;8.58;55.35
24013;BME280;12220;50.194;18.948;2023-03-20T05:56:10;101867.81;;;8.62;55.38
24013;BME280;12220;50.194;18.948;2023-03-20T05:58:19;101876.66;;;8.67;55.31
24013;BME280;12220;50.194;18.948;2023-03-20T06:00:21;101867.40;;;8.71;55.34
24013;BME280;12220;50.194;18.948;2023-03-20T06:02:23;101870.82;;;8.77;55.39
24013;BME280;12220;50.194;18.948;2023-03-20T06:04:25;101880.63;;;8.81;55.54
24013;BME280;12220;50.194;18.948;2023-03-20T06:06:34;101880.38;;;8.87;55.51
24013;BME280;12220;50.194;18.948;2023-03-20T06:08:38;101880.97;;;8.94;55.57
24013;BME280;12220;50.194;18.948;2023-03-20T06:10:39;101878.02;;;8.98;55.59
24013;BME280;12220;50.194;18.948;2023-03-20T06:12:41;101884.11;;;9.05;55.55
24013;BME280;12220;50.194;18.948;2023-03-20T06:14:49;101882.07;;;9.10;55.47
24013;BME280;12220;50.194;18.948;2023-03-20T06:16:50;101886.34;;;9.16;55.37
24013;BME280;12220;50.194;18.948;2023-03-20T06:18:54;101881.56;;;9.21;55.30
24013;BME280;12220;50.194;18.948;2023-03-20T06:20:56;101887.68;;;9.26;55.21
24013;BME280;12220;50.194;18.948;2023-03-20T06:23:05;101894.73;;;9.32;55.13
24013;BME280;12220;50.194;18.948;2023-03-20T06:25:07;101898.21;;;9.35;55.11
24013;BME280;12220;50.194;18.948;2023-03-20T06:27:09;101907.15;;;9.39;55.10
24013;BME280;12220;50.194;18.948;2023-03-20T06:29:11;101902.44;;;9.42;55.10
24013;BME280;12220;50.194;18.948;2023-03-20T06:31:20;101905.03;;;9.46;55.08
24013;BME280;12220;50.194;18.948;2023-03-20T06:33:22;101911.30;;;9.48;55.11
24013;BME280;12220;50.194;18.948;2023-03-20T06:35:23;101910.20;;;9.52;55.16
24013;BME280;12220;50.194;18.948;2023-03-20T06:37:25;101913.77;;;9.54;55.38
24013;BME280;12220;50.194;18.948;2023-03-20T06:39:35;101908.15;;;9.57;55.47
24013;BME280;12220;50.194;18.948;2023-03-20T06:41:40;101910.66;;;9.62;55.60
24013;BME280;12220;50.194;18.948;2023-03-20T06:43:41;101914.95;;;9.67;55.72
24013;BME280;12220;50.194;18.948;2023-03-20T06:45:43;101911.03;;;9.73;56.53
24013;BME280;12220;50.194;18.948;2023-03-20T06:47:50;101916.93;;;9.83;56.37
24013;BME280;12220;50.194;18.948;2023-03-20T06:49:52;101921.07;;;9.91;56.40
24013;BME280;12220;50.194;18.948;2023-03-20T06:51:53;101922.48;;;10.00;56.69
24013;BME280;12220;50.194;18.948;2023-03-20T06:53:55;101917.45;;;10.10;56.90
24013;BME280;12220;50.194;18.948;2023-03-20T06:56:06;101911.45;;;10.21;56.83
24013;BME280;12220;50.194;18.948;2023-03-20T06:58:08;101917.41;;;10.29;56.86
24013;BME280;12220;50.194;18.948;2023-03-20T07:00:10;101921.57;;;10.38;57.17
24013;BME280;12220;50.194;18.948;2023-03-20T07:02:12;101923.91;;;10.45;57.25
24013;BME280;12220;50.194;18.948;2023-03-20T07:04:20;101917.90;;;10.56;57.13
24013;BME280;12220;50.194;18.948;2023-03-20T07:06:22;101917.66;;;10.61;57.20
24013;BME280;12220;50.194;18.948;2023-03-20T07:08:24;101923.64;;;10.69;57.49
24013;BME280;12220;50.194;18.948;2023-03-20T07:10:25;101922.36;;;10.76;57.45
24013;BME280;12220;50.194;18.948;2023-03-20T07:12:35;101922.90;;;10.83;57.48
24013;BME280;12220;50.194;18.948;2023-03-20T07:14:38;101954.66;;;10.87;57.47
24013;BME280;12220;50.194;18.948;2023-03-20T07:16:39;101926.06;;;10.93;57.39
24013;BME280;12220;50.194;18.948;2023-03-20T07:18:41;101929.50;;;10.96;57.57
24013;BME280;12220;50.194;18.948;2023-03-20T07:20:51;101933.78;;;11.02;57.55
24013;BME280;12220;50.194;18.948;2023-03-20T07:22:53;101927.34;;;11.03;57.79
24013;BME280;12220;50.194;18.948;2023-03-20T07:24:55;101936.30;;;11.07;57.90
24013;BME280;12220;50.194;18.948;2023-03-20T07:26:57;101937.09;;;11.09;58.27
24013;BME280;12220;50.194;18.948;2023-03-20T07:29:06;101940.71;;;11.09;58.25
24013;BME280;12220;50.194;18.948;2023-03-20T07:31:22;101941.62;;;11.10;58.23
24013;BME280;12220;50.194;18.948;2023-03-20T07:33:19;101612.43;;;9.11;58.11
24013;BME280;12220;50.194;18.948;2023-03-20T07:35:21;101935.06;;;11.12;58.28
24013;BME280;12220;50.194;18.948;2023-03-20T07:37:26;101940.41;;;11.15;58.31
24013;BME280;12220;50.194;18.948;2023-03-20T07:39:27;101935.88;;;11.14;58.32
24013;BME280;12220;50.194;18.948;2023-03-20T07:41:29;101939.49;;;11.15;58.53
24013;BME280;12220;50.194;18.948;2023-03-20T07:43:31;101949.59;;;11.14;58.46
24013;BME280;12220;50.194;18.948;2023-03-20T07:45:43;101941.45;;;11.13;58.47
24013;BME280;12220;50.194;18.948;2023-03-20T07:47:45;101948.77;;;11.12;58.57
24013;BME280;12220;50.194;18.948;2023-03-20T07:49:48;101949.84;;;11.10;58.66
24013;BME280;12220;50.194;18.948;2023-03-20T07:51:50;101949.76;;;11.11;58.90
24013;BME280;12220;50.194;18.948;2023-03-20T07:53:58;101946.11;;;11.11;59.08
24013;BME280;12220;50.194;18.948;2023-03-20T07:55:59;101949.76;;;11.11;59.26
24013;BME280;12220;50.194;18.948;2023-03-20T07:58:01;101947.90;;;11.12;59.40
24013;BME280;12220;50.194;18.948;2023-03-20T08:00:03;101950.46;;;11.15;59.55
24013;BME280;12220;50.194;18.948;2023-03-20T08:02:17;101956.68;;;11.19;59.70
24013;BME280;12220;50.194;18.948;2023-03-20T08:04:19;101952.95;;;11.20;60.19
24013;BME280;12220;50.194;18.948;2023-03-20T08:06:22;101952.83;;;11.23;60.40
24013;BME280;12220;50.194;18.948;2023-03-20T08:08:24;101950.88;;;11.25;60.97
24013;BME280;12220;50.194;18.948;2023-03-20T08:10:32;101942.73;;;11.23;61.77
24013;BME280;12220;50.194;18.948;2023-03-20T08:12:33;101947.34;;;11.23;62.08
24013;BME280;12220;50.194;18.948;2023-03-20T08:14:35;101941.86;;;11.23;62.49
24013;BME280;12220;50.194;18.948;2023-03-20T08:16:39;101942.65;;;11.25;62.54
24013;BME280;12220;50.194;18.948;2023-03-20T08:18:47;101947.17;;;11.26;62.72
24013;BME280;12220;50.194;18.948;2023-03-20T08:20:50;101933.38;;;11.27;63.25
24013;BME280;12220;50.194;18.948;2023-03-20T08:22:52;101934.25;;;11.28;63.65
24013;BME280;12220;50.194;18.948;2023-03-20T08:24:54;101947.96;;;11.28;63.50
24013;BME280;12220;50.194;18.948;2023-03-20T08:27:02;101946.09;;;11.28;63.84
24013;BME280;12220;50.194;18.948;2023-03-20T08:29:03;101949.73;;;11.29;64.23
24013;BME280;12220;50.194;18.948;2023-03-20T08:31:08;101948.76;;;11.30;64.50
24013;BME280;12220;50.194;18.948;2023-03-20T08:33:11;101951.44;;;11.31;64.41
24013;BME280;12220;50.194;18.948;2023-03-20T08:35:18;101944.88;;;11.34;65.10
24013;BME280;12220;50.194;18.948;2023-03-20T08:37:21;101944.88;;;11.34;65.71
24013;BME280;12220;50.194;18.948;2023-03-20T08:39:23;101937.48;;;11.36;65.21
24013;BME280;12220;50.194;18.948;2023-03-20T08:41:24;101942.95;;;11.36;65.34
24013;BME280;12220;50.194;18.948;2023-03-20T08:43:33;101948.27;;;11.39;65.41
24013;BME280;12220;50.194;18.948;2023-03-20T08:45:36;101948.19;;;11.41;65.68
24013;BME280;12220;50.194;18.948;2023-03-20T08:47:37;101945.27;;;11.44;65.45
24013;BME280;12220;50.194;18.948;2023-03-20T08:49:39;101948.67;;;11.49;65.49
24013;BME280;12220;50.194;18.948;2023-03-20T08:51:49;101943.71;;;11.56;65.50
24013;BME280;12220;50.194;18.948;2023-03-20T08:53:50;101955.25;;;11.62;65.43
24013;BME280;12220;50.194;18.948;2023-03-20T08:55:53;101954.02;;;11.68;65.36
24013;BME280;12220;50.194;18.948;2023-03-20T08:57:54;101952.86;;;11.72;65.85
24013;BME280;12220;50.194;18.948;2023-03-20T09:00:05;101947.14;;;11.77;65.63
24013;BME280;12220;50.194;18.948;2023-03-20T09:02:09;101948.66;;;11.82;65.69
24013;BME280;12220;50.194;18.948;2023-03-20T09:04:14;101954.66;;;11.89;65.84
24013;BME280;12220;50.194;18.948;2023-03-20T09:06:16;101948.85;;;11.95;65.84
24013;BME280;12220;50.194;18.948;2023-03-20T09:08:19;101957.63;;;12.02;65.70
24013;BME280;12220;50.194;18.948;2023-03-20T09:10:20;101945.51;;;12.06;65.58
24013;BME280;12220;50.194;18.948;2023-03-20T09:12:22;101950.64;;;12.12;65.57
24013;BME280;12220;50.194;18.948;2023-03-20T09:14:26;101957.55;;;12.19;65.66
24013;BME280;12220;50.194;18.948;2023-03-20T09:16:39;101948.17;;;12.24;65.52
24013;BME280;12220;50.194;18.948;2023-03-20T09:18:41;101953.48;;;12.27;65.88
24013;BME280;12220;50.194;18.948;2023-03-20T09:20:42;101956.92;;;12.30;65.71
24013;BME280;12220;50.194;18.948;2023-03-20T09:22:45;101953.11;;;12.33;65.86
24013;BME280;12220;50.194;18.948;2023-03-20T09:24:51;101955.77;;;12.34;65.79
24013;BME280;12220;50.194;18.948;2023-03-20T09:26:53;101942.76;;;12.38;65.72
24013;BME280;12220;50.194;18.948;2023-03-20T09:28:55;101952.66;;;12.41;65.78
24013;BME280;12220;50.194;18.948;2023-03-20T09:30:57;101950.63;;;12.44;66.23
24013;BME280;12220;50.194;18.948;2023-03-20T09:33:08;101947.01;;;12.44;66.05
24013;BME280;12220;50.194;18.948;2023-03-20T09:35:10;101947.01;;;12.44;66.28
24013;BME280;12220;50.194;18.948;2023-03-20T09:37:11;101942.48;;;12.43;66.08
24013;BME280;12220;50.194;18.948;2023-03-20T09:39:13;101954.34;;;12.43;66.01
24013;BME280;12220;50.194;18.948;2023-03-20T09:41:25;101952.42;;;12.45;66.10
24013;BME280;12220;50.194;18.948;2023-03-20T09:50:57;101961.98;;;12.54;65.69
24013;BME280;12220;50.194;18.948;2023-03-20T09:55:36;101954.23;;;12.61;65.57
24013;BME280;12220;50.194;18.948;2023-03-20T09:57:40;101952.11;;;12.66;65.59
24013;BME280;12220;50.194;18.948;2023-03-20T09:59:43;101949.00;;;12.72;65.59
24013;BME280;12220;50.194;18.948;2023-03-20T10:01:52;101944.12;;;12.77;65.59
24013;BME280;12220;50.194;18.948;2023-03-20T10:04:00;101944.62;;;12.84;65.64
24013;BME280;12220;50.194;18.948;2023-03-20T10:06:14;101938.84;;;12.88;65.73
24013;BME280;12220;50.194;18.948;2023-03-20T10:08:20;101946.84;;;12.93;65.60
24013;BME280;12220;50.194;18.948;2023-03-20T10:10:32;101950.16;;;12.98;65.83
24013;BME280;12220;50.194;18.948;2023-03-20T10:12:46;101953.69;;;13.00;65.86
24013;BME280;12220;50.194;18.948;2023-03-20T10:21:40;101939.94;;;13.00;65.99
24013;BME280;12220;50.194;18.948;2023-03-20T10:23:56;101936.22;;;13.01;65.89
24013;BME280;12220;50.194;18.948;2023-03-20T10:26:08;101945.19;;;13.05;65.92
24013;BME280;12220;50.194;18.948;2023-03-20T10:28:16;101941.24;;;13.09;65.60
24013;BME280;12220;50.194;18.948;2023-03-20T10:32:38;101949.14;;;13.15;65.29
24013;BME280;12220;50.194;18.948;2023-03-20T10:39:48;101944.21;;;13.20;64.94
24013;BME280;12220;50.194;18.948;2023-03-20T10:42:00;101943.05;;;13.24;64.85
24013;BME280;12220;50.194;18.948;2023-03-20T10:44:04;101938.94;;;13.32;64.90
24013;BME280;12220;50.194;18.948;2023-03-20T10:46:12;101941.43;;;13.36;64.68
24013;BME280;12220;50.194;18.948;2023-03-20T10:48:57;101929.45;;;13.37;64.46
24013;BME280;12220;50.194;18.948;2023-03-20T10:50:49;101931.32;;;13.37;64.14
24013;BME280;12220;50.194;18.948;2023-03-20T10:52:54;101924.82;;;13.38;64.01
24013;BME280;12220;50.194;18.948;2023-03-20T10:55:03;101925.73;;;13.38;64.02
24013;BME280;12220;50.194;18.948;2023-03-20T10:57:22;101935.93;;;13.36;63.89
24013;BME280;12220;50.194;18.948;2023-03-20T10:59:36;101922.27;;;13.35;63.74
24013;BME280;12220;50.194;18.948;2023-03-20T11:01:40;101922.17;;;13.36;63.75
24013;BME280;12220;50.194;18.948;2023-03-20T11:03:42;101920.23;;;13.38;63.78
24013;BME280;12220;50.194;18.948;2023-03-20T11:05:44;101930.04;;;13.42;63.70
24013;BME280;12220;50.194;18.948;2023-03-20T11:07:50;101922.38;;;13.48;63.57
24013;BME280;12220;50.194;18.948;2023-03-20T11:12:18;101922.89;;;13.54;63.33
24013;BME280;12220;50.194;18.948;2023-03-20T11:14:25;101923.56;;;13.58;63.14
24013;BME280;12220;50.194;18.948;2023-03-20T11:16:34;101913.43;;;13.58;63.05
24013;BME280;12220;50.194;18.948;2023-03-20T11:18:40;101911.38;;;13.62;63.04
24013;BME280;12220;50.194;18.948;2023-03-20T11:20:53;101915.00;;;13.63;62.95
24013;BME280;12220;50.194;18.948;2023-03-20T11:23:02;101916.68;;;13.65;62.98
24013;BME280;12220;50.194;18.948;2023-03-20T11:25:04;101915.70;;;13.66;62.91
24013;BME280;12220;50.194;18.948;2023-03-20T11:27:11;101910.88;;;13.70;62.98
24013;BME280;12220;50.194;18.948;2023-03-20T11:29:30;101909.48;;;13.77;63.15
24013;BME280;12220;50.194;18.948;2023-03-20T11:31:43;101902.40;;;13.87;63.06
24013;BME280;12220;50.194;18.948;2023-03-20T11:33:52;101897.28;;;13.95;62.90
24013;BME280;12220;50.194;18.948;2023-03-20T11:35:55;101897.46;;;14.07;62.72
24013;BME280;12220;50.194;18.948;2023-03-20T11:40:20;101882.80;;;14.34;62.31
24013;BME280;12220;50.194;18.948;2023-03-20T11:42:28;101882.64;;;14.50;62.22
24013;BME280;12220;50.194;18.948;2023-03-20T11:44:32;101886.34;;;14.63;61.86
24013;BME280;12220;50.194;18.948;2023-03-20T11:46:36;101876.55;;;14.72;61.39
24013;BME280;12220;50.194;18.948;2023-03-20T11:48:40;101876.91;;;14.80;60.88
24013;BME280;12220;50.194;18.948;2023-03-20T11:50:46;101872.84;;;14.86;60.84
24013;BME280;12220;50.194;18.948;2023-03-20T11:52:49;101867.98;;;14.89;59.89
24013;BME280;12220;50.194;18.948;2023-03-20T11:54:59;101867.00;;;14.90;59.96
24013;BME280;12220;50.194;18.948;2023-03-20T11:57:01;101866.13;;;14.90;59.83
24013;BME280;12220;50.194;18.948;2023-03-20T12:01:20;101872.52;;;14.90;59.55
24013;BME280;12220;50.194;18.948;2023-03-20T12:05:36;101868.88;;;15.03;60.03
24013;BME280;12220;50.194;18.948;2023-03-20T12:07:40;101871.75;;;15.14;59.92
24013;BME280;12220;50.194;18.948;2023-03-20T12:12:07;101867.79;;;15.31;59.52
24013;BME280;12220;50.194;18.948;2023-03-20T12:16:24;101865.33;;;15.52;59.32